Time;durP1;ratioP1;P1;durP2;ratioP2;P2;SDS_P1;SDS_P2;PMS_P1;PMS_P2;Temp;Humidity;BMP_temperature;BMP_pressure;BME280_temperature;BME280_humidity;BME280_pressure;Samples;Min_cycle;Max_cycle;Signal;HPM_P1;HPM_P2
2024/03/05 00:00:33;;;;;;;82.85;39.30;;;;;;;7.51;83.11;100012.72;2485578;29;20048;-79
2024/03/05 00:01:47;;;;;;;80.18;37.47;;;;;;;7.52;83.28;100009.25;2486220;29;20082;-79
2024/03/05 00:03:01;;;;;;;78.25;43.70;;;;;;;7.52;83.48;100001.47;2485513;29;20502;-79
2024/03/05 00:04:15;;;;;;;81.50;37.65;;;;;;;7.53;83.33;100008.34;2484453;29;20056;-78
2024/03/05 00:05:29;;;;;;;88.35;40.17;;;;;;;7.53;83.46;100013.56;2484381;29;20062;-79
2024/03/05 00:06:44;;;;;;;84.93;41.00;;;;;;;7.53;83.35;100007.50;2485957;29;20062;-79
2024/03/05 00:07:58;;;;;;;84.15;42.42;;;;;;;7.52;83.24;100011.84;2485661;29;20051;-78
2024/03/05 00:09:12;;;;;;;79.68;39.20;;;;;;;7.52;83.44;100008.38;2483018;29;20506;-77
2024/03/05 00:10:26;;;;;;;88.72;40.55;;;;;;;7.51;83.37;100011.84;2483714;29;20047;-77
2024/03/05 00:11:41;;;;;;;74.43;37.53;;;;;;;7.52;83.41;100008.38;2483258;29;20047;-77
2024/03/05 00:12:55;;;;;;;81.53;40.20;;;;;;;7.53;83.51;100015.28;2483101;29;20070;-78
2024/03/05 00:14:09;;;;;;;86.10;40.55;;;;;;;7.52;83.54;100004.06;2485624;29;20428;-79
2024/03/05 00:15:23;;;;;;;92.47;38.83;;;;;;;7.53;83.43;100008.34;2485362;29;20421;-79
2024/03/05 00:16:37;;;;;;;85.03;39.47;;;;;;;7.53;83.41;100002.31;2484431;29;20058;-79
2024/03/05 00:17:50;;;;;;;86.47;39.70;;;;;;;7.53;83.30;100002.31;2485697;29;20055;-79
2024/03/05 00:19:06;;;;;;;79.38;38.90;;;;;;;7.54;83.31;100006.66;2485670;29;20051;-80
2024/03/05 00:20:19;;;;;;;84.40;38.15;;;;;;;7.53;83.33;100008.34;2485110;29;20052;-80
2024/03/05 00:21:33;;;;;;;84.13;42.85;;;;;;;7.52;83.68;100004.06;2486175;29;20604;-79
2024/03/05 00:22:47;;;;;;;92.45;41.40;;;;;;;7.54;83.26;100001.47;2485601;29;20055;-80
2024/03/05 00:24:02;;;;;;;73.22;36.13;;;;;;;7.53;83.41;100005.75;2485221;29;20058;-80
2024/03/05 00:25:16;;;;;;;84.07;39.10;;;;;;;7.53;83.80;100010.09;2485048;29;20043;-79
2024/03/05 00:26:30;;;;;;;84.15;40.03;;;;;;;7.51;83.36;100007.53;2485795;29;20046;-79
2024/03/05 00:27:45;;;;;;;84.93;38.00;;;;;;;7.49;83.46;100005.81;2484391;29;20058;-80
2024/03/05 00:29:02;;;;;;;85.30;39.22;;;;;;;7.47;83.39;100004.97;2483697;29;20405;-77
2024/03/05 00:30:18;;;;;;;85.07;38.05;;;;;;;7.46;83.18;100011.00;2483791;29;20102;-79
2024/03/05 00:31:32;;;;;;;84.57;39.75;;;;;;;7.46;83.14;100011.91;2486155;29;20075;-79
2024/03/05 00:32:47;;;;;;;87.05;41.70;;;;;;;7.43;83.41;100005.00;2483546;29;20055;-79
2024/03/05 00:34:01;;;;;;;94.10;41.70;;;;;;;7.41;83.37;100005.88;2485892;29;20051;-79
2024/03/05 00:35:15;;;;;;;82.13;39.20;;;;;;;7.40;83.56;100006.72;2485348;29;20083;-79
2024/03/05 00:36:28;;;;;;;87.25;36.92;;;;;;;7.38;83.43;99998.97;2485175;29;20052;-80
2024/03/05 00:37:43;;;;;;;84.45;40.78;;;;;;;7.38;83.55;100008.44;2486391;29;20498;-79
2024/03/05 00:38:56;;;;;;;95.80;40.65;;;;;;;7.36;83.60;100000.69;2485805;29;20052;-80
2024/03/05 00:40:12;;;;;;;97.82;41.30;;;;;;;7.36;83.59;100002.44;2485964;29;20052;-79
2024/03/05 00:41:25;;;;;;;89.57;41.85;;;;;;;7.35;83.63;99998.94;2492091;29;20028;-80
2024/03/05 00:42:40;;;;;;;93.00;43.10;;;;;;;7.34;83.84;100010.22;2491071;29;20083;-79
2024/03/05 00:43:55;;;;;;;98.90;42.00;;;;;;;7.34;83.92;100005.03;2484420;29;20126;-79
2024/03/05 00:45:12;;;;;;;92.40;45.53;;;;;;;7.34;83.85;100005.03;2483930;29;20044;-79
2024/03/05 00:46:25;;;;;;;86.95;38.72;;;;;;;7.33;83.73;100005.91;2484432;29;20051;-79
2024/03/05 00:47:40;;;;;;;87.90;40.92;;;;;;;7.33;83.67;100008.50;2484921;29;20139;-79
2024/03/05 00:48:53;;;;;;;83.18;41.20;;;;;;;7.33;83.75;100003.31;2484706;29;20054;-79
2024/03/05 00:50:12;;;;;;;79.95;41.60;;;;;;;7.33;83.81;100005.03;2485574;29;20070;-79
2024/03/05 00:51:26;;;;;;;97.55;40.55;;;;;;;7.31;83.51;100007.66;2485511;29;20055;-79
2024/03/05 00:52:40;;;;;;;83.40;39.20;;;;;;;7.31;83.85;100014.56;2484983;29;20054;-80
2024/03/05 00:53:54;;;;;;;97.55;42.92;;;;;;;7.32;83.89;100016.28;2485440;29;20055;-80
2024/03/05 00:55:08;;;;;;;88.53;42.15;;;;;;;7.32;83.92;100017.16;2485781;29;20047;-80
2024/03/05 00:56:22;;;;;;;100.00;40.90;;;;;;;7.33;83.87;100013.69;2485446;29;20410;-80
2024/03/05 00:57:37;;;;;;;83.10;40.75;;;;;;;7.33;84.02;100011.09;2485680;29;20135;-79
2024/03/05 00:58:51;;;;;;;89.55;39.20;;;;;;;7.33;83.71;100003.31;2485916;29;20079;-81
2024/03/05 01:00:08;;;;;;;88.75;38.55;;;;;;;7.34;84.05;100009.38;2485766;29;20047;-80
2024/03/05 01:01:21;;;;;;;90.82;42.38;;;;;;;7.34;83.92;100007.63;2485211;29;20134;-79
2024/03/05 01:02:36;;;;;;;98.32;40.67;;;;;;;7.35;83.78;100008.47;2485787;29;20428;-79
2024/03/05 01:03:49;;;;;;;76.55;38.38;;;;;;;7.34;83.86;100005.03;2485420;29;20051;-79
2024/03/05 01:05:09;;;;;;;94.15;43.60;;;;;;;7.35;83.91;100001.53;2484780;29;20516;-79
2024/03/05 01:06:23;;;;;;;93.60;39.00;;;;;;;7.35;83.81;100005.88;2485839;29;20083;-79
2024/03/05 01:07:37;;;;;;;87.20;39.08;;;;;;;7.35;83.82;100011.94;2485672;29;20048;-79
2024/03/05 01:08:51;;;;;;;88.47;40.20;;;;;;;7.34;83.85;100007.63;2485909;29;20051;-79
2024/03/05 01:10:06;;;;;;;90.25;40.20;;;;;;;7.35;84.03;100006.75;2485747;29;20074;-79
2024/03/05 01:11:20;;;;;;;74.18;35.83;;;;;;;7.35;83.88;99996.34;2486037;29;20044;-79
2024/03/05 01:12:34;;;;;;;91.70;38.65;;;;;;;7.34;83.92;99997.25;2488958;29;20108;-79
2024/03/05 01:13:48;;;;;;;85.78;37.83;;;;;;;7.34;84.00;100002.44;2485788;29;20059;-79
2024/03/05 01:15:03;;;;;;;86.10;39.53;;;;;;;7.31;83.92;99997.25;2485607;29;20181;-79
2024/03/05 01:16:18;;;;;;;90.50;37.60;;;;;;;7.31;84.05;99999.84;2486331;29;20051;-79
2024/03/05 01:17:33;;;;;;;82.95;36.88;;;;;;;7.32;83.87;99996.38;2486467;29;20421;-79
2024/03/05 01:18:46;;;;;;;93.90;42.30;;;;;;;7.30;84.03;100003.31;2491802;29;20047;-79
2024/03/05 01:20:00;;;;;;;89.93;42.53;;;;;;;7.32;84.09;100000.72;2485287;28;20052;-79
2024/03/05 01:21:14;;;;;;;90.05;37.63;;;;;;;7.31;83.84;99996.41;2484446;29;20055;-78
2024/03/05 01:22:28;;;;;;;85.15;38.10;;;;;;;7.32;84.00;99990.34;2484011;29;20050;-78
2024/03/05 01:23:43;;;;;;;84.95;40.50;;;;;;;7.31;83.92;99999.00;2484499;29;20052;-80
2024/03/05 01:24:58;;;;;;;89.60;41.50;;;;;;;7.31;83.92;99999.84;2483205;29;20094;-77
2024/03/05 01:26:11;;;;;;;86.68;39.55;;;;;;;7.31;84.12;99997.25;2484088;29;20363;-78
2024/03/05 01:27:27;;;;;;;96.40;43.33;;;;;;;7.32;84.13;99998.97;2483879;29;20054;-77
2024/03/05 01:28:41;;;;;;;80.13;40.38;;;;;;;7.31;84.04;99999.84;2481746;29;20067;-77
2024/03/05 01:29:55;;;;;;;93.78;40.97;;;;;;;7.31;84.28;99992.06;2483768;29;20537;-78
2024/03/05 01:31:09;;;;;;;92.10;42.42;;;;;;;7.31;84.04;99999.00;2483858;29;20060;-78
2024/03/05 01:32:28;;;;;;;88.30;39.65;;;;;;;7.30;84.09;100000.72;2483616;29;20139;-78
2024/03/05 01:33:43;;;;;;;81.65;38.15;;;;;;;7.30;84.10;99999.84;2483557;29;20043;-78
2024/03/05 01:34:58;;;;;;;79.75;37.08;;;;;;;7.28;84.11;99999.00;2483630;29;20509;-77
2024/03/05 01:36:11;;;;;;;84.30;37.65;;;;;;;7.26;83.95;100001.63;2485868;29;20052;-78
2024/03/05 01:37:26;;;;;;;88.57;39.33;;;;;;;7.25;83.98;99999.03;2485595;29;20048;-77
2024/03/05 01:38:39;;;;;;;92.97;41.30;;;;;;;7.24;84.13;99999.91;2485270;29;20064;-78
2024/03/05 01:39:54;;;;;;;82.45;37.40;;;;;;;7.23;84.26;100004.25;2485296;29;20052;-78
2024/03/05 01:41:07;;;;;;;80.70;37.45;;;;;;;7.22;84.15;100000.75;2485931;29;20058;-78
2024/03/05 01:42:21;;;;;;;81.85;38.70;;;;;;;7.23;84.38;99999.03;2486661;29;20054;-78
2024/03/05 01:43:35;;;;;;;82.10;37.63;;;;;;;7.23;84.21;100001.63;2486492;29;20055;-78
2024/03/05 01:44:50;;;;;;;82.93;38.20;;;;;;;7.22;84.19;100005.09;2486062;29;20052;-78
2024/03/05 01:46:04;;;;;;;87.30;36.45;;;;;;;7.21;84.32;100000.78;2478555;29;20056;-77
2024/03/05 01:47:19;;;;;;;83.57;41.13;;;;;;;7.21;84.25;100003.38;2486252;29;20374;-77
2024/03/05 01:48:33;;;;;;;94.32;39.00;;;;;;;7.21;nan;100003.38;2486146;29;20043;-78
2024/03/05 01:49:48;;;;;;;85.18;36.92;;;;;;;7.21;nan;100008.56;2495350;28;20039;-77
2024/03/05 01:51:02;;;;;;;88.82;39.13;;;;;;;7.22;84.30;100007.69;2495707;28;20051;-78
2024/03/05 01:52:16;;;;;;;77.72;37.17;;;;;;;7.22;84.31;100008.53;2495853;29;20058;-77
2024/03/05 01:53:30;;;;;;;86.95;40.25;;;;;;;7.22;84.42;99999.91;2491092;29;20054;-77
2024/03/05 01:54:45;;;;;;;94.25;41.70;;;;;;;7.22;84.32;100005.09;2486535;29;20135;-78
2024/03/05 01:55:59;;;;;;;83.45;38.40;;;;;;;7.22;84.14;100002.50;2486233;29;20080;-78
2024/03/05 01:57:13;;;;;;;89.72;40.55;;;;;;;7.22;84.11;100005.94;2485762;29;20043;-77
2024/03/05 01:58:27;;;;;;;86.65;40.50;;;;;;;7.23;84.30;100006.84;2486991;29;20066;-78
2024/03/05 01:59:41;;;;;;;87.80;37.08;;;;;;;7.24;84.13;100011.13;2486775;29;20051;-78
2024/03/05 02:00:57;;;;;;;89.82;42.13;;;;;;;7.24;84.30;100013.72;2486333;29;20052;-77
2024/03/05 02:02:12;;;;;;;95.90;42.63;;;;;;;7.23;84.36;100006.84;2486903;29;20095;-78
2024/03/05 02:03:25;;;;;;;89.40;40.72;;;;;;;7.24;84.24;100005.09;2486276;29;20052;-78
2024/03/05 02:04:43;;;;;;;88.53;40.30;;;;;;;7.25;84.39;100019.78;2485696;29;20518;-78
2024/03/05 02:05:59;;;;;;;99.30;43.78;;;;;;;7.25;84.20;100009.41;2485890;29;20115;-78
2024/03/05 02:07:14;;;;;;;88.85;38.47;;;;;;;7.26;84.12;100017.19;2486384;29;20075;-78
2024/03/05 02:08:27;;;;;;;89.20;39.90;;;;;;;7.26;84.14;100011.16;2485652;29;20047;-78
2024/03/05 02:09:42;;;;;;;95.90;43.47;;;;;;;7.27;84.33;100011.13;2486122;29;20138;-78
2024/03/05 02:10:55;;;;;;;91.00;43.55;;;;;;;7.28;84.45;100010.28;2486223;29;20052;-77
2024/03/05 02:12:10;;;;;;;93.80;42.88;;;;;;;7.29;84.23;100017.16;2486308;29;20074;-78
2024/03/05 02:13:24;;;;;;;93.43;42.80;;;;;;;7.29;84.30;100009.38;2485126;29;20054;-78
2024/03/05 02:14:38;;;;;;;94.13;43.45;;;;;;;7.30;84.33;100013.69;2485826;29;20837;-78
2024/03/05 02:15:52;;;;;;;86.55;42.83;;;;;;;7.32;84.27;100013.69;2486172;29;20047;-78
2024/03/05 02:17:07;;;;;;;100.90;42.05;;;;;;;7.33;84.26;100018.88;2485573;29;20120;-78
2024/03/05 02:18:21;;;;;;;94.43;41.40;;;;;;;7.35;84.62;100018.88;2486029;29;20395;-78
2024/03/05 02:19:36;;;;;;;82.80;39.30;;;;;;;7.35;84.21;100021.47;2486116;29;20040;-78
2024/03/05 02:20:50;;;;;;;99.25;43.78;;;;;;;7.34;84.48;100020.59;2485790;29;20478;-78
2024/03/05 02:22:07;;;;;;;101.88;44.25;;;;;;;7.36;84.53;100023.19;2485502;29;20119;-78
2024/03/05 02:23:21;;;;;;;95.35;41.90;;;;;;;7.36;84.35;100024.06;2485939;29;20401;-78
2024/03/05 02:24:36;;;;;;;95.65;45.20;;;;;;;7.37;84.10;100025.78;2486175;29;20051;-78
2024/03/05 02:25:49;;;;;;;90.47;38.72;;;;;;;7.39;84.35;100023.19;2486466;29;20070;-78
2024/03/05 02:27:04;;;;;;;90.10;41.53;;;;;;;7.39;84.33;100018.84;2486511;29;20421;-78
2024/03/05 02:28:17;;;;;;;95.50;40.28;;;;;;;7.39;84.38;100021.44;2486284;29;20044;-79
2024/03/05 02:29:34;;;;;;;88.47;42.00;;;;;;;7.42;84.38;100025.75;2486251;29;20066;-78
2024/03/05 02:30:47;;;;;;;86.35;40.97;;;;;;;7.42;84.31;100020.56;2486072;29;20111;-78
2024/03/05 02:32:02;;;;;;;81.78;41.38;;;;;;;7.43;84.46;100020.56;2485746;29;20055;-78
2024/03/05 02:33:16;;;;;;;85.75;42.03;;;;;;;7.44;84.23;100024.00;2485535;29;20130;-78
2024/03/05 02:34:30;;;;;;;91.47;40.35;;;;;;;7.46;84.41;100030.06;2485903;29;20040;-78
2024/03/05 02:35:44;;;;;;;85.78;41.60;;;;;;;7.47;84.25;100030.94;2486110;29;20063;-77
2024/03/05 02:36:59;;;;;;;94.97;42.92;;;;;;;7.47;84.30;100034.38;2485902;29;20661;-77
2024/03/05 02:38:14;;;;;;;82.65;40.78;;;;;;;7.49;84.28;100029.19;2486358;29;20066;-78
2024/03/05 02:39:28;;;;;;;93.88;39.67;;;;;;;7.49;84.35;100029.19;2485733;29;20051;-78
2024/03/05 02:40:41;;;;;;;78.13;40.40;;;;;;;7.50;84.25;100026.56;2485400;29;20046;-77
2024/03/05 02:41:56;;;;;;;77.22;38.38;;;;;;;7.50;84.07;100030.91;2485830;29;20058;-78
2024/03/05 02:43:10;;;;;;;76.40;37.15;;;;;;;7.49;84.05;100027.44;2485704;29;20062;-78
2024/03/05 02:44:26;;;;;;;81.47;38.47;;;;;;;7.49;84.16;100037.84;2485603;29;20144;-78
2024/03/05 02:45:40;;;;;;;83.22;42.33;;;;;;;7.49;83.94;100031.78;2485303;29;20054;-78
2024/03/05 02:46:54;;;;;;;84.28;38.40;;;;;;;7.50;83.98;100036.09;2485961;29;20710;-78
2024/03/05 02:48:09;;;;;;;73.82;38.95;;;;;;;7.50;84.15;100033.50;2486332;29;20056;-78
2024/03/05 02:49:23;;;;;;;84.20;40.05;;;;;;;7.49;83.98;100031.78;2485629;29;20043;-77
2024/03/05 02:50:37;;;;;;;92.45;42.35;;;;;;;7.49;83.87;100039.56;2486486;29;20051;-78
2024/03/05 02:51:51;;;;;;;85.13;38.78;;;;;;;7.50;84.09;100036.09;2486076;29;20386;-77
2024/03/05 02:53:06;;;;;;;88.45;39.75;;;;;;;7.48;83.91;100038.69;2485842;29;20050;-78
2024/03/05 02:54:21;;;;;;;77.10;36.13;;;;;;;7.47;84.04;100038.72;2486374;29;20059;-78
2024/03/05 02:55:38;;;;;;;89.65;37.65;;;;;;;7.45;83.83;100033.53;2486299;29;20055;-78
2024/03/05 02:56:52;;;;;;;82.25;37.25;;;;;;;7.43;83.78;100037.84;2488038;29;20043;-78
2024/03/05 02:58:06;;;;;;;72.47;38.67;;;;;;;7.43;83.69;100038.75;2496600;28;20036;-77
2024/03/05 02:59:20;;;;;;;85.15;41.42;;;;;;;7.41;83.77;100031.81;2486463;29;20043;-77
2024/03/05 03:00:34;;;;;;;80.22;41.65;;;;;;;7.40;83.74;100027.50;2485108;29;20122;-77
2024/03/05 03:01:48;;;;;;;89.15;39.45;;;;;;;7.39;83.84;100029.22;2485508;29;20052;-77
2024/03/05 03:03:02;;;;;;;79.80;37.80;;;;;;;7.39;83.88;100039.63;2485256;29;20070;-78
2024/03/05 03:04:16;;;;;;;84.35;38.38;;;;;;;7.38;83.64;100032.72;2484779;29;20119;-78
2024/03/05 03:05:31;;;;;;;79.78;39.42;;;;;;;7.38;83.71;100034.41;2484919;29;20047;-77
2024/03/05 03:06:44;;;;;;;79.53;40.25;;;;;;;7.36;83.72;100031.84;2485698;29;20051;-78
2024/03/05 03:07:59;;;;;;;76.50;41.97;;;;;;;7.35;83.88;100040.47;2485447;29;20052;-78
2024/03/05 03:09:12;;;;;;;80.97;39.70;;;;;;;7.36;83.61;100034.44;2486091;29;20052;-78
2024/03/05 03:10:28;;;;;;;88.57;41.45;;;;;;;7.36;83.72;100042.22;2486584;29;20130;-78
2024/03/05 03:11:47;;;;;;;82.55;40.28;;;;;;;7.35;83.71;100043.09;2486581;29;20043;-78
2024/03/05 03:13:02;;;;;;;85.25;37.13;;;;;;;7.36;83.28;100043.97;2485474;29;20458;-78
2024/03/05 03:14:15;;;;;;;81.32;37.33;;;;;;;7.35;83.68;100047.41;2486439;29;20059;-78
2024/03/05 03:15:30;;;;;;;83.10;37.20;;;;;;;7.34;83.62;100046.56;2486086;29;20052;-77
2024/03/05 03:16:43;;;;;;;75.38;37.80;;;;;;;7.33;83.53;100050.03;2485922;29;20130;-78
2024/03/05 03:17:58;;;;;;;75.78;41.40;;;;;;;7.32;83.82;100048.28;2485617;29;20394;-77
2024/03/05 03:19:12;;;;;;;86.68;41.70;;;;;;;7.31;83.43;100054.38;2484927;29;20110;-77
2024/03/05 03:20:26;;;;;;;85.35;41.72;;;;;;;7.28;83.41;100051.78;2485019;29;20443;-78
2024/03/05 03:21:39;;;;;;;82.20;39.55;;;;;;;7.26;83.48;100053.53;2485981;29;20512;-79
2024/03/05 03:22:54;;;;;;;79.50;40.33;;;;;;;7.26;83.53;100056.13;2485453;29;20052;-78
2024/03/05 03:24:10;;;;;;;83.25;40.72;;;;;;;7.24;83.42;100055.25;2488222;29;20050;-78
2024/03/05 03:25:25;;;;;;;82.55;39.92;;;;;;;7.22;83.72;100055.25;2485605;28;20106;-78
2024/03/05 03:26:40;;;;;;;82.03;39.90;;;;;;;7.23;83.69;100056.16;2486164;29;20417;-78
2024/03/05 03:27:54;;;;;;;87.75;41.05;;;;;;;7.24;83.67;100060.44;2485486;29;20065;-77
2024/03/05 03:29:11;;;;;;;72.72;38.70;;;;;;;7.24;83.71;100055.25;2484291;29;20071;-77
2024/03/05 03:30:26;;;;;;;77.90;38.55;;;;;;;7.26;83.85;100057.88;2485415;29;20134;-79
2024/03/05 03:31:39;;;;;;;78.85;38.65;;;;;;;7.26;83.95;100061.31;2485578;29;20113;-77
2024/03/05 03:32:54;;;;;;;86.05;39.28;;;;;;;7.27;83.72;100059.56;2485372;29;20047;-77
2024/03/05 03:34:07;;;;;;;74.78;37.20;;;;;;;7.24;83.69;100065.63;2485571;29;20058;-79
2024/03/05 03:35:22;;;;;;;76.40;35.33;;;;;;;7.23;83.51;100056.16;2485914;29;20516;-78
2024/03/05 03:36:35;;;;;;;79.82;38.00;;;;;;;7.22;83.81;100060.44;2484400;29;20563;-78
2024/03/05 03:37:51;;;;;;;87.35;40.95;;;;;;;7.22;83.68;100062.19;2484909;29;20058;-78
2024/03/05 03:39:10;;;;;;;75.50;40.35;;;;;;;7.22;83.74;100070.81;2485374;29;20110;-78
2024/03/05 03:40:25;;;;;;;80.63;40.85;;;;;;;7.21;83.77;100058.72;2485106;29;20047;-78
2024/03/05 03:41:39;;;;;;;89.15;37.72;;;;;;;7.21;83.82;100065.66;2485642;29;20448;-78
2024/03/05 03:42:54;;;;;;;77.93;37.20;;;;;;;7.20;83.63;100058.72;2485910;29;20051;-78
2024/03/05 03:44:08;;;;;;;86.82;40.78;;;;;;;7.20;83.81;100061.31;2485630;29;20059;-78
2024/03/05 03:45:22;;;;;;;79.97;38.65;;;;;;;7.19;83.81;100057.88;2485008;29;20044;-78
2024/03/05 03:46:36;;;;;;;85.43;39.60;;;;;;;7.19;83.86;100073.44;2485440;29;20059;-78
2024/03/05 03:47:50;;;;;;;80.75;39.50;;;;;;;7.18;83.72;100063.94;2485666;29;20449;-78
2024/03/05 03:49:05;;;;;;;85.78;39.65;;;;;;;7.19;83.67;100062.19;2485333;29;20054;-78
2024/03/05 03:50:19;;;;;;;89.40;39.20;;;;;;;7.19;83.66;100062.19;2485445;29;20051;-78
2024/03/05 03:51:33;;;;;;;90.60;40.83;;;;;;;7.18;83.74;100063.09;2486094;29;20051;-78
2024/03/05 03:52:48;;;;;;;79.68;39.70;;;;;;;7.20;83.70;100063.91;2490844;29;20119;-78
2024/03/05 03:54:02;;;;;;;79.78;39.83;;;;;;;7.20;83.50;100064.81;2487885;29;20058;-78
2024/03/05 03:55:17;;;;;;;76.43;39.05;;;;;;;7.21;83.83;100063.06;2485163;29;20592;-78
2024/03/05 03:56:30;;;;;;;79.25;38.28;;;;;;;7.22;83.51;100064.78;2484568;29;20044;-78
2024/03/05 03:57:47;;;;;;;72.53;37.35;;;;;;;7.24;83.80;100062.19;2485519;29;20107;-79
2024/03/05 03:59:00;;;;;;;77.90;38.15;;;;;;;7.25;83.79;100071.69;2483968;29;20484;-78
2024/03/05 04:00:17;;;;;;;85.97;39.67;;;;;;;7.24;83.87;100070.84;2485198;29;20059;-78
2024/03/05 04:01:31;;;;;;;79.97;38.17;;;;;;;7.24;83.79;100070.84;2485167;29;20047;-78
2024/03/05 04:02:46;;;;;;;71.72;39.22;;;;;;;7.24;83.67;100068.25;2485364;29;20068;-78
2024/03/05 04:03:59;;;;;;;64.05;36.17;;;;;;;7.24;83.68;100068.25;2485378;29;20524;-78
2024/03/05 04:05:14;;;;;;;77.40;38.50;;;;;;;7.24;83.78;100070.84;2489625;29;20047;-78
2024/03/05 04:06:28;;;;;;;74.45;41.15;;;;;;;7.24;83.72;100072.56;2496412;28;20027;-77
2024/03/05 04:07:42;;;;;;;84.97;40.17;;;;;;;7.22;83.75;100073.41;2495597;29;20027;-78
2024/03/05 04:08:56;;;;;;;80.70;42.58;;;;;;;7.22;83.73;100073.41;2488680;29;20047;-78
2024/03/05 04:10:11;;;;;;;84.82;40.10;;;;;;;7.22;83.82;100072.56;2486212;29;20128;-78
2024/03/05 04:11:24;;;;;;;77.38;40.95;;;;;;;7.23;83.81;100076.91;2486342;29;20116;-78
2024/03/05 04:12:39;;;;;;;85.20;39.78;;;;;;;7.22;83.67;100067.38;2485785;29;20063;-78
2024/03/05 04:13:54;;;;;;;69.82;36.53;;;;;;;7.20;83.80;100072.59;2488584;29;20107;-77
2024/03/05 04:15:09;;;;;;;66.70;35.92;;;;;;;7.21;83.54;100070.84;2488473;29;20123;-78
2024/03/05 04:16:22;;;;;;;70.03;36.72;;;;;;;7.24;83.77;100069.97;2485347;29;20494;-77
2024/03/05 04:17:37;;;;;;;78.35;39.28;;;;;;;7.25;83.49;100071.69;2485442;29;20043;-78
2024/03/05 04:18:51;;;;;;;71.63;40.05;;;;;;;7.25;83.78;100072.53;2485625;29;20052;-77
2024/03/05 04:20:08;;;;;;;71.55;36.38;;;;;;;7.25;83.63;100071.69;2485867;29;20131;-78
2024/03/05 04:21:22;;;;;;;74.35;37.53;;;;;;;7.24;83.47;100083.81;2486215;29;20042;-78
2024/03/05 04:22:38;;;;;;;73.13;36.20;;;;;;;7.24;83.83;100080.34;2486688;29;20083;-78
2024/03/05 04:23:52;;;;;;;74.03;38.83;;;;;;;7.23;83.72;100074.31;2486058;29;20052;-78
2024/03/05 04:25:07;;;;;;;77.90;39.00;;;;;;;7.22;83.56;100077.75;2485619;29;20047;-78
2024/03/05 04:26:23;;;;;;;73.35;35.90;;;;;;;7.21;83.92;100076.91;2485704;29;20055;-77
2024/03/05 04:27:45;;;;;;;75.32;36.08;;;;;;;7.21;83.72;100073.44;2486536;29;20048;-77
2024/03/05 04:29:00;;;;;;;69.13;36.40;;;;;;;7.22;83.70;100078.63;2485552;29;20043;-77
2024/03/05 04:30:15;;;;;;;78.28;37.20;;;;;;;7.21;83.52;100079.50;2485783;29;20469;-78
2024/03/05 04:31:34;;;;;;;71.97;36.50;;;;;;;7.21;83.79;100082.09;2487220;29;20051;-77
2024/03/05 04:32:49;;;;;;;71.10;39.50;;;;;;;7.20;83.57;100076.91;2485153;29;20051;-78
2024/03/05 04:34:04;;;;;;;80.18;38.78;;;;;;;7.20;83.65;100082.09;2485475;29;20055;-77
2024/03/05 04:35:19;;;;;;;78.10;41.80;;;;;;;7.21;83.56;100084.69;2485124;29;20442;-78
2024/03/05 04:36:33;;;;;;;79.82;40.03;;;;;;;7.19;83.50;100078.63;2483561;29;20119;-78
2024/03/05 04:37:50;;;;;;;77.32;36.03;;;;;;;7.19;83.61;100081.22;2483897;29;20630;-78
2024/03/05 04:39:03;;;;;;;83.35;37.92;;;;;;;7.20;83.56;100084.69;2484126;29;20146;-78
2024/03/05 04:40:18;;;;;;;87.75;39.97;;;;;;;7.20;83.67;100079.50;2484008;29;20054;-78
2024/03/05 04:41:32;;;;;;;80.03;40.72;;;;;;;7.21;83.75;100086.44;2484114;29;20052;-78
2024/03/05 04:42:48;;;;;;;75.60;37.47;;;;;;;7.23;83.78;100095.06;2484035;29;20130;-78
2024/03/05 04:44:03;;;;;;;82.60;42.38;;;;;;;7.22;83.67;100090.72;2483695;29;20063;-78
2024/03/05 04:45:18;;;;;;;70.10;37.15;;;;;;;7.24;83.79;100091.59;2483419;29;20064;-78
2024/03/05 04:46:31;;;;;;;72.95;36.05;;;;;;;7.24;83.89;100085.56;2484078;29;20394;-78
2024/03/05 04:47:46;;;;;;;84.10;41.58;;;;;;;7.25;83.65;100088.13;2484353;29;20055;-78
2024/03/05 04:48:59;;;;;;;87.50;40.15;;;;;;;7.24;83.58;100090.75;2483619;29;20139;-78
2024/03/05 04:50:14;;;;;;;69.78;35.65;;;;;;;7.24;83.58;100096.78;2476048;29;20516;-78
2024/03/05 04:51:28;;;;;;;78.78;37.33;;;;;;;7.26;83.64;100094.19;2483516;29;20051;-77
2024/03/05 04:52:42;;;;;;;75.28;39.90;;;;;;;7.25;83.64;100098.50;2483636;29;20123;-78
2024/03/05 04:53:56;;;;;;;90.95;39.15;;;;;;;7.27;83.71;100099.38;2484032;29;20138;-78
2024/03/05 04:55:11;;;;;;;89.90;37.97;;;;;;;7.26;83.54;100099.38;2483463;29;20437;-78
2024/03/05 04:56:24;;;;;;;66.03;37.13;;;;;;;7.27;83.65;100093.31;2483573;29;20047;-78
2024/03/05 04:57:38;;;;;;;77.53;38.95;;;;;;;7.26;83.50;100097.66;2484176;29;20059;-78
2024/03/05 04:58:52;;;;;;;78.57;38.50;;;;;;;7.27;83.62;100086.38;2484089;29;20056;-78
2024/03/05 05:00:19;;;;;;;72.45;38.72;;;;;;;7.28;83.62;100093.31;2484013;29;20047;-78
2024/03/05 05:01:33;;;;;;;76.68;37.70;;;;;;;7.29;83.76;100099.38;2483577;29;20103;-78
2024/03/05 05:02:47;;;;;;;78.40;37.75;;;;;;;7.30;83.54;100101.94;2483747;29;20111;-78
2024/03/05 05:04:02;;;;;;;76.15;37.90;;;;;;;7.30;83.61;100094.16;2483644;29;20497;-78
2024/03/05 05:05:17;;;;;;;78.00;38.97;;;;;;;7.31;83.58;100093.31;2482906;29;20130;-78
2024/03/05 05:06:32;;;;;;;84.65;40.30;;;;;;;7.33;83.71;100099.34;2484038;29;20055;-79
2024/03/05 05:07:47;;;;;;;81.22;38.78;;;;;;;7.31;83.71;100098.50;2483799;29;20507;-78
2024/03/05 05:09:00;;;;;;;75.85;41.17;;;;;;;7.32;83.74;100101.94;2483928;29;20131;-78
2024/03/05 05:10:15;;;;;;;71.15;36.47;;;;;;;7.31;83.67;100090.72;2476309;29;20052;-78
2024/03/05 05:11:28;;;;;;;76.15;38.10;;;;;;;7.33;83.58;100098.47;2484321;29;20051;-78
2024/03/05 05:12:44;;;;;;;74.38;37.42;;;;;;;7.33;83.72;100090.69;2485502;29;20118;-78
2024/03/05 05:13:58;;;;;;;80.47;39.92;;;;;;;7.34;83.51;100093.28;2495067;29;20035;-77
2024/03/05 05:15:14;;;;;;;70.97;38.72;;;;;;;7.34;83.50;100095.03;2484682;29;20189;-77
2024/03/05 05:16:28;;;;;;;72.10;38.47;;;;;;;7.33;83.66;100093.28;2483552;29;20050;-77
2024/03/05 05:17:44;;;;;;;76.05;40.17;;;;;;;7.30;83.41;100083.78;2483816;29;20509;-78
2024/03/05 05:18:58;;;;;;;84.93;41.67;;;;;;;7.30;83.42;100088.09;2484189;29;20694;-78
2024/03/05 05:20:15;;;;;;;71.72;38.55;;;;;;;7.29;83.42;100086.41;2483802;29;20130;-78
2024/03/05 05:21:28;;;;;;;73.65;38.15;;;;;;;7.27;83.63;100088.13;2483329;29;20059;-77
2024/03/05 05:22:44;;;;;;;84.50;40.97;;;;;;;7.27;83.53;100080.34;2484447;29;20427;-78
2024/03/05 05:23:57;;;;;;;85.40;40.42;;;;;;;7.27;83.38;100085.53;2483289;29;20055;-78
2024/03/05 05:25:14;;;;;;;80.18;40.25;;;;;;;7.26;83.44;100086.41;2482855;29;20560;-78
2024/03/05 05:26:28;;;;;;;79.38;39.60;;;;;;;7.23;83.50;100089.88;2483838;29;20059;-78
2024/03/05 05:27:42;;;;;;;82.05;39.30;;;;;;;7.19;83.31;100086.41;2483956;29;20059;-78
2024/03/05 05:28:56;;;;;;;78.60;36.83;;;;;;;7.19;83.61;100085.56;2483127;29;20060;-78
2024/03/05 05:30:11;;;;;;;86.18;40.22;;;;;;;7.18;83.63;100087.28;2483111;29;20428;-78
2024/03/05 05:31:26;;;;;;;78.88;39.45;;;;;;;7.18;83.55;100092.50;2483560;29;20106;-78
2024/03/05 05:32:40;;;;;;;81.20;45.50;;;;;;;7.18;83.75;100096.81;2483009;29;20071;-78
2024/03/05 05:33:55;;;;;;;85.57;43.58;;;;;;;7.17;83.39;100087.28;2483173;29;20059;-78
2024/03/05 05:35:09;;;;;;;78.85;42.13;;;;;;;7.17;83.61;100089.88;2483255;29;20058;-78
2024/03/05 05:36:23;;;;;;;88.78;42.53;;;;;;;7.15;83.82;100102.00;2483026;29;20055;-78
2024/03/05 05:37:37;;;;;;;86.65;43.10;;;;;;;7.14;83.77;100100.28;2483446;29;20130;-78
2024/03/05 05:38:51;;;;;;;88.88;42.90;;;;;;;7.12;83.69;100094.22;2483433;29;20064;-78
2024/03/05 05:40:09;;;;;;;91.47;43.53;;;;;;;7.12;83.78;100099.41;2483345;29;20059;-78
2024/03/05 05:41:23;;;;;;;85.32;41.55;;;;;;;7.11;83.93;100092.50;2486006;29;20056;-77
2024/03/05 05:42:37;;;;;;;95.32;41.10;;;;;;;7.09;83.84;100104.63;2486853;29;20129;-77